Kezdőlap
METAR-TAF:

METAR-TAF

Repülőterek :

Girona, Spanyolország

földrajzi szélesség: 41-54N, földrajzi hosszúság: 002-46E, magasság: 143 m

Jelenlegi meteorológiai megfigyelések

A jelentés 43 perccel ezelõtt készült, 08:00 UTC
Különbözõ irányokból fújó szél 2 kt
Hőmérséklet 9°C
Páratartalom 100%
Légköri nyomás 1016 hPa
Látótávolság 10 km, vagy több
Szakadozott felhőzet 1900 lábon
Szakadozott felhőzet 2400 lábon

METAR: LEGE 270800Z VRB02KT 9999 BKN019 BKN024 09/09 Q1016 RERA

Idő: 09:43 (08:43 UTC)

Előrejelzés

A jelentés 3 órával és 43 perccel ezelõtt készült, 05:00 UTC
Az előrejelzés 27-én 06 óra UTC és 28-én 06 óra UTC között érvényes
Különbözõ irányokból fújó szél 3 kt
Látótávolság 10 km, vagy több
Kevés felhő 3000 lábon
Valószínűség 40% :
27-én 08 óra UTC és 27-én 12 óra UTC között ideiglenes
Nyugat-északnyugati szél 7 kt

TAF: LEGE 270500Z 2706/2806 VRB03KT 9999 FEW030 TX20/2715Z TN05/2706Z PROB40 TEMPO 2708/2712 29007KT

Meteorológiai megfigyelések és előrejelzések több, mint 4000 repülőtéren (METAR és TAF jelentéseket).

A térképen piros és sárga pontok jelzik az elérhető meteorológiai állomásokat.

Mozgassa az egeret a pont fölött, hogy megjelenjen az állomás neve.

Azután kattintson az időjárási megfigyelések és előrejelzések megtekintéséhez.

A térkép megváltoztatása: kattintson a fekete keresztel jelölt zöld gombra ráközelítéshez, a vonallal jelölt zöld gombra távolításhoz, vagy a zöld nyilakra a szomszédos térképek eléréséhez.


METAR-TAF: